sensor_id;sensor_type;location;lat;lon;timestamp;P1;durP1;ratioP1;P2;durP2;ratioP2
71759;SDS011;59919;48.112;16.280;2023-03-15T00:02:26;0.60;;;0.38;;
71759;SDS011;59919;48.112;16.280;2023-03-15T00:04:57;0.30;;;0.30;;
71759;SDS011;59919;48.112;16.280;2023-03-15T00:07:31;0.30;;;0.30;;
71759;SDS011;59919;48.112;16.280;2023-03-15T00:10:02;0.30;;;0.30;;
71759;SDS011;59919;48.112;16.280;2023-03-15T00:12:33;0.52;;;0.40;;
71759;SDS011;59919;48.112;16.280;2023-03-15T00:15:06;0.40;;;0.40;;
71759;SDS011;59919;48.112;16.280;2023-03-15T00:17:41;0.38;;;0.30;;
71759;SDS011;59919;48.112;16.280;2023-03-15T00:20:14;1.02;;;0.40;;
71759;SDS011;59919;48.112;16.280;2023-03-15T00:22:49;0.88;;;0.28;;
71759;SDS011;59919;48.112;16.280;2023-03-15T00:25:20;0.75;;;0.30;;
71759;SDS011;59919;48.112;16.280;2023-03-15T00:27:52;0.40;;;0.30;;
71759;SDS011;59919;48.112;16.280;2023-03-15T00:30:23;1.50;;;0.40;;
71759;SDS011;59919;48.112;16.280;2023-03-15T00:32:56;0.30;;;0.30;;
71759;SDS011;59919;48.112;16.280;2023-03-15T00:35:27;0.38;;;0.30;;
71759;SDS011;59919;48.112;16.280;2023-03-15T00:37:58;0.65;;;0.40;;
71759;SDS011;59919;48.112;16.280;2023-03-15T00:40:30;0.82;;;0.32;;
71759;SDS011;59919;48.112;16.280;2023-03-15T00:43:01;0.30;;;0.25;;
71759;SDS011;59919;48.112;16.280;2023-03-15T00:45:33;1.00;;;0.28;;
71759;SDS011;59919;48.112;16.280;2023-03-15T00:48:07;0.20;;;0.20;;
71759;SDS011;59919;48.112;16.280;2023-03-15T00:50:41;0.50;;;0.30;;
71759;SDS011;59919;48.112;16.280;2023-03-15T00:53:12;0.85;;;0.30;;
71759;SDS011;59919;48.112;16.280;2023-03-15T00:55:43;0.30;;;0.30;;
71759;SDS011;59919;48.112;16.280;2023-03-15T00:58:14;0.43;;;0.38;;
71759;SDS011;59919;48.112;16.280;2023-03-15T01:00:45;0.40;;;0.40;;
71759;SDS011;59919;48.112;16.280;2023-03-15T01:03:19;0.30;;;0.30;;
71759;SDS011;59919;48.112;16.280;2023-03-15T01:05:50;0.50;;;0.30;;
71759;SDS011;59919;48.112;16.280;2023-03-15T01:08:22;0.30;;;0.20;;
71759;SDS011;59919;48.112;16.280;2023-03-15T01:10:56;0.90;;;0.40;;
71759;SDS011;59919;48.112;16.280;2023-03-15T01:13:34;0.40;;;0.30;;
71759;SDS011;59919;48.112;16.280;2023-03-15T01:16:05;0.60;;;0.40;;
71759;SDS011;59919;48.112;16.280;2023-03-15T01:18:39;0.50;;;0.30;;
71759;SDS011;59919;48.112;16.280;2023-03-15T01:21:14;0.43;;;0.30;;
71759;SDS011;59919;48.112;16.280;2023-03-15T01:23:46;0.40;;;0.22;;
71759;SDS011;59919;48.112;16.280;2023-03-15T01:26:19;0.50;;;0.35;;
71759;SDS011;59919;48.112;16.280;2023-03-15T01:28:50;0.98;;;0.20;;
71759;SDS011;59919;48.112;16.280;2023-03-15T01:31:27;0.40;;;0.40;;
71759;SDS011;59919;48.112;16.280;2023-03-15T01:34:02;0.57;;;0.40;;
71759;SDS011;59919;48.112;16.280;2023-03-15T01:36:41;0.28;;;0.28;;
71759;SDS011;59919;48.112;16.280;2023-03-15T01:39:12;0.57;;;0.40;;
71759;SDS011;59919;48.112;16.280;2023-03-15T01:41:43;0.93;;;0.22;;
71759;SDS011;59919;48.112;16.280;2023-03-15T01:44:18;0.60;;;0.40;;
71759;SDS011;59919;48.112;16.280;2023-03-15T01:46:49;0.63;;;0.40;;
71759;SDS011;59919;48.112;16.280;2023-03-15T01:51:56;0.70;;;0.30;;
71759;SDS011;59919;48.112;16.280;2023-03-15T01:54:35;0.30;;;0.30;;
71759;SDS011;59919;48.112;16.280;2023-03-15T01:57:15;0.40;;;0.30;;
71759;SDS011;59919;48.112;16.280;2023-03-15T02:00:07;0.40;;;0.20;;
71759;SDS011;59919;48.112;16.280;2023-03-15T02:02:51;0.30;;;0.30;;
71759;SDS011;59919;48.112;16.280;2023-03-15T02:05:35;0.30;;;0.20;;
71759;SDS011;59919;48.112;16.280;2023-03-15T02:08:16;0.25;;;0.25;;
71759;SDS011;59919;48.112;16.280;2023-03-15T02:10:52;0.63;;;0.30;;
71759;SDS011;59919;48.112;16.280;2023-03-15T02:13:26;0.43;;;0.30;;
71759;SDS011;59919;48.112;16.280;2023-03-15T02:16:02;0.73;;;0.40;;
71759;SDS011;59919;48.112;16.280;2023-03-15T02:18:36;0.68;;;0.43;;
71759;SDS011;59919;48.112;16.280;2023-03-15T02:23:50;0.35;;;0.30;;
71759;SDS011;59919;48.112;16.280;2023-03-15T02:26:44;0.20;;;0.20;;
71759;SDS011;59919;48.112;16.280;2023-03-15T02:29:20;0.47;;;0.30;;
71759;SDS011;59919;48.112;16.280;2023-03-15T02:31:53;1.27;;;0.50;;
71759;SDS011;59919;48.112;16.280;2023-03-15T02:34:25;0.20;;;0.20;;
71759;SDS011;59919;48.112;16.280;2023-03-15T02:36:57;0.32;;;0.30;;
71759;SDS011;59919;48.112;16.280;2023-03-15T02:39:31;0.20;;;0.20;;
71759;SDS011;59919;48.112;16.280;2023-03-15T02:42:02;0.28;;;0.20;;
71759;SDS011;59919;48.112;16.280;2023-03-15T02:44:35;0.32;;;0.28;;
71759;SDS011;59919;48.112;16.280;2023-03-15T02:47:09;0.60;;;0.38;;
71759;SDS011;59919;48.112;16.280;2023-03-15T02:49:44;0.50;;;0.30;;
71759;SDS011;59919;48.112;16.280;2023-03-15T02:52:25;0.40;;;0.30;;
71759;SDS011;59919;48.112;16.280;2023-03-15T02:55:09;0.28;;;0.20;;
71759;SDS011;59919;48.112;16.280;2023-03-15T02:57:41;0.35;;;0.32;;
71759;SDS011;59919;48.112;16.280;2023-03-15T03:00:14;0.50;;;0.20;;
71759;SDS011;59919;48.112;16.280;2023-03-15T03:03:04;0.30;;;0.30;;
71759;SDS011;59919;48.112;16.280;2023-03-15T03:05:35;0.47;;;0.30;;
71759;SDS011;59919;48.112;16.280;2023-03-15T03:08:12;0.70;;;0.40;;
71759;SDS011;59919;48.112;16.280;2023-03-15T03:10:45;0.55;;;0.47;;
71759;SDS011;59919;48.112;16.280;2023-03-15T03:13:17;0.43;;;0.30;;
71759;SDS011;59919;48.112;16.280;2023-03-15T03:15:50;0.35;;;0.30;;
71759;SDS011;59919;48.112;16.280;2023-03-15T03:18:28;0.52;;;0.30;;
71759;SDS011;59919;48.112;16.280;2023-03-15T03:21:05;0.65;;;0.40;;
71759;SDS011;59919;48.112;16.280;2023-03-15T03:23:39;0.40;;;0.30;;
71759;SDS011;59919;48.112;16.280;2023-03-15T03:26:14;0.55;;;0.40;;
71759;SDS011;59919;48.112;16.280;2023-03-15T03:28:51;1.13;;;0.40;;
71759;SDS011;59919;48.112;16.280;2023-03-15T03:31:25;0.60;;;0.30;;
71759;SDS011;59919;48.112;16.280;2023-03-15T03:34:03;0.30;;;0.30;;
71759;SDS011;59919;48.112;16.280;2023-03-15T03:36:34;0.90;;;0.30;;
71759;SDS011;59919;48.112;16.280;2023-03-15T03:39:06;0.57;;;0.30;;
71759;SDS011;59919;48.112;16.280;2023-03-15T03:41:40;0.68;;;0.40;;
71759;SDS011;59919;48.112;16.280;2023-03-15T03:44:11;0.85;;;0.30;;
71759;SDS011;59919;48.112;16.280;2023-03-15T03:46:43;0.40;;;0.40;;
71759;SDS011;59919;48.112;16.280;2023-03-15T03:49:17;0.30;;;0.30;;
71759;SDS011;59919;48.112;16.280;2023-03-15T03:51:51;0.28;;;0.25;;
71759;SDS011;59919;48.112;16.280;2023-03-15T03:54:24;0.40;;;0.40;;
71759;SDS011;59919;48.112;16.280;2023-03-15T03:56:55;0.70;;;0.40;;
71759;SDS011;59919;48.112;16.280;2023-03-15T03:59:26;0.38;;;0.38;;
71759;SDS011;59919;48.112;16.280;2023-03-15T04:02:00;0.77;;;0.30;;
71759;SDS011;59919;48.112;16.280;2023-03-15T04:04:31;0.80;;;0.40;;
71759;SDS011;59919;48.112;16.280;2023-03-15T04:07:02;0.52;;;0.43;;
71759;SDS011;59919;48.112;16.280;2023-03-15T04:09:33;0.52;;;0.35;;
71759;SDS011;59919;48.112;16.280;2023-03-15T04:12:06;0.52;;;0.40;;
71759;SDS011;59919;48.112;16.280;2023-03-15T04:14:43;0.40;;;0.32;;
71759;SDS011;59919;48.112;16.280;2023-03-15T04:17:14;0.60;;;0.47;;
71759;SDS011;59919;48.112;16.280;2023-03-15T04:19:45;0.60;;;0.60;;
71759;SDS011;59919;48.112;16.280;2023-03-15T04:22:19;0.75;;;0.40;;
71759;SDS011;59919;48.112;16.280;2023-03-15T04:24:50;0.50;;;0.50;;
71759;SDS011;59919;48.112;16.280;2023-03-15T04:27:24;0.65;;;0.60;;
71759;SDS011;59919;48.112;16.280;2023-03-15T04:29:55;0.40;;;0.40;;
71759;SDS011;59919;48.112;16.280;2023-03-15T04:32:28;0.30;;;0.30;;
71759;SDS011;59919;48.112;16.280;2023-03-15T04:35:03;0.40;;;0.40;;
71759;SDS011;59919;48.112;16.280;2023-03-15T04:37:35;0.40;;;0.40;;
71759;SDS011;59919;48.112;16.280;2023-03-15T04:40:09;0.60;;;0.50;;
71759;SDS011;59919;48.112;16.280;2023-03-15T04:42:42;0.70;;;0.50;;
71759;SDS011;59919;48.112;16.280;2023-03-15T04:45:16;0.57;;;0.45;;
71759;SDS011;59919;48.112;16.280;2023-03-15T04:47:48;0.65;;;0.50;;
71759;SDS011;59919;48.112;16.280;2023-03-15T04:50:21;0.52;;;0.50;;
71759;SDS011;59919;48.112;16.280;2023-03-15T04:52:57;0.73;;;0.47;;
71759;SDS011;59919;48.112;16.280;2023-03-15T04:55:29;0.90;;;0.60;;
71759;SDS011;59919;48.112;16.280;2023-03-15T04:58:00;0.50;;;0.50;;
71759;SDS011;59919;48.112;16.280;2023-03-15T05:00:31;0.55;;;0.50;;
71759;SDS011;59919;48.112;16.280;2023-03-15T05:03:05;0.98;;;0.52;;
71759;SDS011;59919;48.112;16.280;2023-03-15T05:05:39;0.82;;;0.40;;
71759;SDS011;59919;48.112;16.280;2023-03-15T05:08:15;0.65;;;0.43;;
71759;SDS011;59919;48.112;16.280;2023-03-15T05:10:48;0.43;;;0.40;;
71759;SDS011;59919;48.112;16.280;2023-03-15T05:13:19;0.68;;;0.50;;
71759;SDS011;59919;48.112;16.280;2023-03-15T05:15:53;0.50;;;0.50;;
71759;SDS011;59919;48.112;16.280;2023-03-15T05:18:24;0.65;;;0.40;;
71759;SDS011;59919;48.112;16.280;2023-03-15T05:20:56;0.82;;;0.50;;
71759;SDS011;59919;48.112;16.280;2023-03-15T05:23:30;1.20;;;0.40;;
71759;SDS011;59919;48.112;16.280;2023-03-15T05:26:03;0.93;;;0.50;;
71759;SDS011;59919;48.112;16.280;2023-03-15T05:28:35;0.70;;;0.50;;
71759;SDS011;59919;48.112;16.280;2023-03-15T05:31:06;0.95;;;0.60;;
71759;SDS011;59919;48.112;16.280;2023-03-15T05:33:37;0.40;;;0.40;;
71759;SDS011;59919;48.112;16.280;2023-03-15T05:36:10;1.13;;;0.40;;
71759;SDS011;59919;48.112;16.280;2023-03-15T05:38:44;0.40;;;0.40;;
71759;SDS011;59919;48.112;16.280;2023-03-15T05:41:16;0.98;;;0.57;;
71759;SDS011;59919;48.112;16.280;2023-03-15T05:43:51;1.35;;;0.40;;
71759;SDS011;59919;48.112;16.280;2023-03-15T05:46:23;0.50;;;0.40;;
71759;SDS011;59919;48.112;16.280;2023-03-15T05:48:54;1.27;;;0.45;;
71759;SDS011;59919;48.112;16.280;2023-03-15T05:51:25;1.40;;;0.50;;
71759;SDS011;59919;48.112;16.280;2023-03-15T05:54:03;0.82;;;0.40;;
71759;SDS011;59919;48.112;16.280;2023-03-15T05:56:34;1.30;;;0.50;;
71759;SDS011;59919;48.112;16.280;2023-03-15T05:59:08;2.13;;;0.40;;
71759;SDS011;59919;48.112;16.280;2023-03-15T06:01:39;1.02;;;0.60;;
71759;SDS011;59919;48.112;16.280;2023-03-15T06:04:10;10.68;;;0.90;;
71759;SDS011;59919;48.112;16.280;2023-03-15T06:06:49;7.75;;;0.80;;
71759;SDS011;59919;48.112;16.280;2023-03-15T06:09:21;5.50;;;0.73;;
71759;SDS011;59919;48.112;16.280;2023-03-15T06:11:52;6.00;;;0.60;;
71759;SDS011;59919;48.112;16.280;2023-03-15T06:14:25;6.85;;;1.05;;
71759;SDS011;59919;48.112;16.280;2023-03-15T06:16:59;9.38;;;0.70;;
71759;SDS011;59919;48.112;16.280;2023-03-15T06:19:30;4.57;;;1.05;;
71759;SDS011;59919;48.112;16.280;2023-03-15T06:22:01;3.75;;;0.60;;
71759;SDS011;59919;48.112;16.280;2023-03-15T06:24:33;4.50;;;0.90;;
71759;SDS011;59919;48.112;16.280;2023-03-15T06:27:04;5.40;;;0.63;;
71759;SDS011;59919;48.112;16.280;2023-03-15T06:29:38;3.90;;;0.70;;
71759;SDS011;59919;48.112;16.280;2023-03-15T06:32:09;6.97;;;0.65;;
71759;SDS011;59919;48.112;16.280;2023-03-15T06:34:41;3.22;;;0.60;;
71759;SDS011;59919;48.112;16.280;2023-03-15T06:37:12;6.22;;;0.50;;
71759;SDS011;59919;48.112;16.280;2023-03-15T06:39:43;2.75;;;0.50;;
71759;SDS011;59919;48.112;16.280;2023-03-15T06:42:14;7.10;;;0.80;;
71759;SDS011;59919;48.112;16.280;2023-03-15T06:44:46;3.35;;;0.50;;
71759;SDS011;59919;48.112;16.280;2023-03-15T06:47:19;3.47;;;0.60;;
71759;SDS011;59919;48.112;16.280;2023-03-15T06:49:50;2.67;;;0.50;;
71759;SDS011;59919;48.112;16.280;2023-03-15T06:52:21;1.17;;;0.40;;
71759;SDS011;59919;48.112;16.280;2023-03-15T06:54:55;2.50;;;0.65;;
71759;SDS011;59919;48.112;16.280;2023-03-15T06:57:29;1.42;;;0.32;;
71759;SDS011;59919;48.112;16.280;2023-03-15T07:00:02;3.60;;;0.50;;
71759;SDS011;59919;48.112;16.280;2023-03-15T07:02:40;1.48;;;0.55;;
71759;SDS011;59919;48.112;16.280;2023-03-15T07:05:11;4.35;;;0.50;;
71759;SDS011;59919;48.112;16.280;2023-03-15T07:07:42;1.85;;;0.50;;
71759;SDS011;59919;48.112;16.280;2023-03-15T07:10:13;2.88;;;0.60;;
71759;SDS011;59919;48.112;16.280;2023-03-15T07:12:44;0.95;;;0.30;;
71759;SDS011;59919;48.112;16.280;2023-03-15T07:15:21;2.55;;;0.50;;
71759;SDS011;59919;48.112;16.280;2023-03-15T07:17:54;1.08;;;0.50;;
71759;SDS011;59919;48.112;16.280;2023-03-15T07:20:25;3.15;;;0.57;;
71759;SDS011;59919;48.112;16.280;2023-03-15T07:22:59;1.90;;;0.40;;
71759;SDS011;59919;48.112;16.280;2023-03-15T07:25:32;1.15;;;0.40;;
71759;SDS011;59919;48.112;16.280;2023-03-15T07:28:03;1.63;;;0.50;;
71759;SDS011;59919;48.112;16.280;2023-03-15T07:30:35;0.85;;;0.35;;
71759;SDS011;59919;48.112;16.280;2023-03-15T07:33:08;3.17;;;0.60;;
71759;SDS011;59919;48.112;16.280;2023-03-15T07:35:39;1.83;;;0.50;;
71759;SDS011;59919;48.112;16.280;2023-03-15T07:38:11;1.73;;;0.40;;
71759;SDS011;59919;48.112;16.280;2023-03-15T07:40:43;1.48;;;0.43;;
71759;SDS011;59919;48.112;16.280;2023-03-15T07:43:14;2.80;;;0.77;;
71759;SDS011;59919;48.112;16.280;2023-03-15T07:45:49;2.33;;;0.60;;
71759;SDS011;59919;48.112;16.280;2023-03-15T07:48:20;2.72;;;0.50;;
71759;SDS011;59919;48.112;16.280;2023-03-15T07:50:54;3.72;;;0.77;;
71759;SDS011;59919;48.112;16.280;2023-03-15T07:53:26;0.93;;;0.40;;
71759;SDS011;59919;48.112;16.280;2023-03-15T07:55:57;1.13;;;0.40;;
71759;SDS011;59919;48.112;16.280;2023-03-15T07:58:29;2.22;;;0.50;;
71759;SDS011;59919;48.112;16.280;2023-03-15T08:01:03;2.42;;;0.47;;
71759;SDS011;59919;48.112;16.280;2023-03-15T08:03:34;1.83;;;0.45;;
71759;SDS011;59919;48.112;16.280;2023-03-15T08:06:06;1.90;;;0.63;;
71759;SDS011;59919;48.112;16.280;2023-03-15T08:08:37;1.50;;;0.40;;
71759;SDS011;59919;48.112;16.280;2023-03-15T08:11:08;1.38;;;0.40;;
71759;SDS011;59919;48.112;16.280;2023-03-15T08:13:40;1.88;;;0.30;;
71759;SDS011;59919;48.112;16.280;2023-03-15T08:16:14;1.05;;;0.55;;
71759;SDS011;59919;48.112;16.280;2023-03-15T08:18:46;2.00;;;0.45;;
71759;SDS011;59919;48.112;16.280;2023-03-15T08:21:17;1.27;;;0.43;;
71759;SDS011;59919;48.112;16.280;2023-03-15T08:23:48;0.80;;;0.32;;
71759;SDS011;59919;48.112;16.280;2023-03-15T08:26:19;0.73;;;0.50;;
71759;SDS011;59919;48.112;16.280;2023-03-15T08:28:50;0.60;;;0.30;;
71759;SDS011;59919;48.112;16.280;2023-03-15T08:31:21;0.95;;;0.40;;
71759;SDS011;59919;48.112;16.280;2023-03-15T08:33:52;2.08;;;0.30;;
71759;SDS011;59919;48.112;16.280;2023-03-15T08:36:23;1.25;;;0.50;;
71759;SDS011;59919;48.112;16.280;2023-03-15T08:38:57;0.80;;;0.35;;
71759;SDS011;59919;48.112;16.280;2023-03-15T08:41:28;1.17;;;0.52;;
71759;SDS011;59919;48.112;16.280;2023-03-15T08:43:59;0.93;;;0.40;;
71759;SDS011;59919;48.112;16.280;2023-03-15T08:46:30;1.10;;;0.40;;
71759;SDS011;59919;48.112;16.280;2023-03-15T08:49:02;0.75;;;0.35;;
71759;SDS011;59919;48.112;16.280;2023-03-15T08:51:34;1.88;;;0.38;;
71759;SDS011;59919;48.112;16.280;2023-03-15T08:54:08;0.43;;;0.30;;
71759;SDS011;59919;48.112;16.280;2023-03-15T08:56:46;2.33;;;0.40;;
71759;SDS011;59919;48.112;16.280;2023-03-15T08:59:17;1.15;;;0.50;;
71759;SDS011;59919;48.112;16.280;2023-03-15T09:01:48;1.00;;;0.30;;
71759;SDS011;59919;48.112;16.280;2023-03-15T09:04:22;1.17;;;0.30;;
71759;SDS011;59919;48.112;16.280;2023-03-15T09:06:53;1.67;;;0.50;;
71759;SDS011;59919;48.112;16.280;2023-03-15T09:09:24;0.95;;;0.40;;
71759;SDS011;59919;48.112;16.280;2023-03-15T09:11:55;2.15;;;0.50;;
71759;SDS011;59919;48.112;16.280;2023-03-15T09:14:27;0.57;;;0.35;;
71759;SDS011;59919;48.112;16.280;2023-03-15T09:16:58;0.70;;;0.40;;
71759;SDS011;59919;48.112;16.280;2023-03-15T09:19:29;2.35;;;1.02;;
71759;SDS011;59919;48.112;16.280;2023-03-15T09:22:01;0.70;;;0.40;;
71759;SDS011;59919;48.112;16.280;2023-03-15T09:24:32;0.95;;;0.50;;
71759;SDS011;59919;48.112;16.280;2023-03-15T09:27:03;0.73;;;0.38;;
71759;SDS011;59919;48.112;16.280;2023-03-15T09:29:35;2.00;;;0.40;;
71759;SDS011;59919;48.112;16.280;2023-03-15T09:32:06;1.60;;;0.38;;
71759;SDS011;59919;48.112;16.280;2023-03-15T09:34:37;1.15;;;0.52;;
71759;SDS011;59919;48.112;16.280;2023-03-15T09:37:08;1.20;;;0.45;;
71759;SDS011;59919;48.112;16.280;2023-03-15T09:39:43;1.27;;;0.55;;
71759;SDS011;59919;48.112;16.280;2023-03-15T09:42:19;1.67;;;0.40;;
71759;SDS011;59919;48.112;16.280;2023-03-15T09:47:39;1.15;;;0.50;;
71759;SDS011;59919;48.112;16.280;2023-03-15T09:50:43;1.17;;;0.55;;
71759;SDS011;59919;48.112;16.280;2023-03-15T09:53:23;0.50;;;0.43;;
71759;SDS011;59919;48.112;16.280;2023-03-15T09:59:25;0.85;;;0.50;;
71759;SDS011;59919;48.112;16.280;2023-03-15T10:02:24;1.67;;;0.32;;
71759;SDS011;59919;48.112;16.280;2023-03-15T10:05:00;1.88;;;0.47;;
71759;SDS011;59919;48.112;16.280;2023-03-15T10:07:37;1.35;;;0.40;;
71759;SDS011;59919;48.112;16.280;2023-03-15T10:10:18;1.10;;;0.40;;
71759;SDS011;59919;48.112;16.280;2023-03-15T10:12:57;1.40;;;0.47;;
71759;SDS011;59919;48.112;16.280;2023-03-15T10:18:46;1.05;;;0.50;;
71759;SDS011;59919;48.112;16.280;2023-03-15T10:21:49;1.00;;;0.55;;
71759;SDS011;59919;48.112;16.280;2023-03-15T10:24:38;2.08;;;0.40;;
71759;SDS011;59919;48.112;16.280;2023-03-15T10:30:00;1.15;;;0.50;;
71759;SDS011;59919;48.112;16.280;2023-03-15T10:32:42;1.73;;;0.60;;
71759;SDS011;59919;48.112;16.280;2023-03-15T10:35:17;0.60;;;0.40;;
71759;SDS011;59919;48.112;16.280;2023-03-15T10:37:49;1.17;;;0.50;;
71759;SDS011;59919;48.112;16.280;2023-03-15T10:43:30;1.25;;;0.50;;
71759;SDS011;59919;48.112;16.280;2023-03-15T10:46:09;2.08;;;0.50;;
71759;SDS011;59919;48.112;16.280;2023-03-15T10:48:57;0.70;;;0.40;;
71759;SDS011;59919;48.112;16.280;2023-03-15T10:51:46;0.77;;;0.40;;
71759;SDS011;59919;48.112;16.280;2023-03-15T10:54:19;1.13;;;0.60;;
71759;SDS011;59919;48.112;16.280;2023-03-15T11:04:49;0.90;;;0.35;;
71759;SDS011;59919;48.112;16.280;2023-03-15T11:07:33;0.77;;;0.40;;
71759;SDS011;59919;48.112;16.280;2023-03-15T11:10:06;1.13;;;0.50;;
71759;SDS011;59919;48.112;16.280;2023-03-15T11:12:40;1.75;;;0.50;;
71759;SDS011;59919;48.112;16.280;2023-03-15T11:15:13;0.60;;;0.50;;
71759;SDS011;59919;48.112;16.280;2023-03-15T11:17:48;1.42;;;0.43;;
71759;SDS011;59919;48.112;16.280;2023-03-15T11:20:27;0.98;;;0.40;;
71759;SDS011;59919;48.112;16.280;2023-03-15T11:23:05;1.77;;;0.40;;
71759;SDS011;59919;48.112;16.280;2023-03-15T11:25:55;0.98;;;0.43;;
71759;SDS011;59919;48.112;16.280;2023-03-15T11:28:29;2.58;;;0.68;;
71759;SDS011;59919;48.112;16.280;2023-03-15T11:31:05;1.40;;;0.60;;
71759;SDS011;59919;48.112;16.280;2023-03-15T11:36:53;0.85;;;0.40;;
71759;SDS011;59919;48.112;16.280;2023-03-15T11:39:33;0.60;;;0.45;;
71759;SDS011;59919;48.112;16.280;2023-03-15T11:42:21;1.00;;;0.40;;
71759;SDS011;59919;48.112;16.280;2023-03-15T11:45:00;2.90;;;0.50;;
71759;SDS011;59919;48.112;16.280;2023-03-15T11:47:38;2.15;;;0.60;;
71759;SDS011;59919;48.112;16.280;2023-03-15T11:50:18;2.30;;;0.55;;
71759;SDS011;59919;48.112;16.280;2023-03-15T11:52:50;1.38;;;0.60;;
71759;SDS011;59919;48.112;16.280;2023-03-15T11:55:23;0.50;;;0.38;;
71759;SDS011;59919;48.112;16.280;2023-03-15T11:57:56;0.80;;;0.50;;
71759;SDS011;59919;48.112;16.280;2023-03-15T12:00:49;1.40;;;0.35;;
71759;SDS011;59919;48.112;16.280;2023-03-15T12:08:47;0.90;;;0.63;;
71759;SDS011;59919;48.112;16.280;2023-03-15T12:16:27;1.75;;;0.60;;
71759;SDS011;59919;48.112;16.280;2023-03-15T12:19:00;0.80;;;0.50;;
71759;SDS011;59919;48.112;16.280;2023-03-15T12:21:42;0.80;;;0.50;;
71759;SDS011;59919;48.112;16.280;2023-03-15T12:27:21;1.05;;;0.50;;
71759;SDS011;59919;48.112;16.280;2023-03-15T12:30:00;0.95;;;0.40;;
71759;SDS011;59919;48.112;16.280;2023-03-15T12:32:35;1.10;;;0.52;;
71759;SDS011;59919;48.112;16.280;2023-03-15T12:35:16;0.88;;;0.50;;
71759;SDS011;59919;48.112;16.280;2023-03-15T12:37:53;1.08;;;0.60;;
71759;SDS011;59919;48.112;16.280;2023-03-15T12:40:36;1.65;;;0.50;;
71759;SDS011;59919;48.112;16.280;2023-03-15T12:55:06;0.57;;;0.40;;
71759;SDS011;59919;48.112;16.280;2023-03-15T12:57:48;1.35;;;0.60;;
71759;SDS011;59919;48.112;16.280;2023-03-15T13:00:27;0.90;;;0.50;;
71759;SDS011;59919;48.112;16.280;2023-03-15T13:03:03;1.73;;;0.77;;
71759;SDS011;59919;48.112;16.280;2023-03-15T13:16:55;1.55;;;0.50;;
71759;SDS011;59919;48.112;16.280;2023-03-15T13:19:38;1.25;;;0.82;;
71759;SDS011;59919;48.112;16.280;2023-03-15T13:22:23;1.33;;;0.60;;
71759;SDS011;59919;48.112;16.280;2023-03-15T13:25:21;1.30;;;0.52;;
71759;SDS011;59919;48.112;16.280;2023-03-15T13:28:31;0.85;;;0.60;;
71759;SDS011;59919;48.112;16.280;2023-03-15T13:31:19;1.38;;;0.70;;
71759;SDS011;59919;48.112;16.280;2023-03-15T13:33:56;0.95;;;0.60;;
71759;SDS011;59919;48.112;16.280;2023-03-15T13:39:16;0.82;;;0.50;;
71759;SDS011;59919;48.112;16.280;2023-03-15T13:42:16;0.93;;;0.50;;
71759;SDS011;59919;48.112;16.280;2023-03-15T13:45:09;1.13;;;0.63;;
71759;SDS011;59919;48.112;16.280;2023-03-15T13:47:44;0.93;;;0.70;;
71759;SDS011;59919;48.112;16.280;2023-03-15T13:50:18;1.10;;;0.60;;
71759;SDS011;59919;48.112;16.280;2023-03-15T13:52:50;0.80;;;0.50;;
71759;SDS011;59919;48.112;16.280;2023-03-15T13:55:32;2.05;;;0.70;;
71759;SDS011;59919;48.112;16.280;2023-03-15T13:58:06;0.68;;;0.60;;
71759;SDS011;59919;48.112;16.280;2023-03-15T14:00:38;0.63;;;0.60;;
71759;SDS011;59919;48.112;16.280;2023-03-15T14:03:12;0.90;;;0.60;;
71759;SDS011;59919;48.112;16.280;2023-03-15T14:05:47;1.40;;;0.70;;
71759;SDS011;59919;48.112;16.280;2023-03-15T14:08:26;1.05;;;0.60;;
71759;SDS011;59919;48.112;16.280;2023-03-15T14:13:52;1.00;;;0.82;;
71759;SDS011;59919;48.112;16.280;2023-03-15T14:21:57;1.38;;;0.70;;
71759;SDS011;59919;48.112;16.280;2023-03-15T14:28:14;0.88;;;0.60;;
71759;SDS011;59919;48.112;16.280;2023-03-15T14:30:56;1.02;;;0.52;;
71759;SDS011;59919;48.112;16.280;2023-03-15T14:34:32;1.38;;;0.88;;
71759;SDS011;59919;48.112;16.280;2023-03-15T14:37:35;0.80;;;0.50;;
71759;SDS011;59919;48.112;16.280;2023-03-15T14:41:08;1.27;;;0.70;;
71759;SDS011;59919;48.112;16.280;2023-03-15T14:43:34;0.88;;;0.60;;
71759;SDS011;59919;48.112;16.280;2023-03-15T14:46:34;0.68;;;0.60;;
71759;SDS011;59919;48.112;16.280;2023-03-15T14:51:59;0.73;;;0.40;;
71759;SDS011;59919;48.112;16.280;2023-03-15T14:54:47;0.85;;;0.63;;
71759;SDS011;59919;48.112;16.280;2023-03-15T14:57:23;2.88;;;0.70;;
71759;SDS011;59919;48.112;16.280;2023-03-15T15:02:28;0.70;;;0.60;;
71759;SDS011;59919;48.112;16.280;2023-03-15T15:05:02;1.48;;;0.80;;
71759;SDS011;59919;48.112;16.280;2023-03-15T15:07:45;1.38;;;0.70;;
71759;SDS011;59919;48.112;16.280;2023-03-15T15:10:24;1.27;;;0.50;;
71759;SDS011;59919;48.112;16.280;2023-03-15T15:12:55;0.77;;;0.50;;
71759;SDS011;59919;48.112;16.280;2023-03-15T15:15:26;2.03;;;0.63;;
71759;SDS011;59919;48.112;16.280;2023-03-15T15:17:58;2.50;;;0.80;;
71759;SDS011;59919;48.112;16.280;2023-03-15T15:20:31;3.45;;;0.70;;
71759;SDS011;59919;48.112;16.280;2023-03-15T15:23:02;2.20;;;0.73;;
71759;SDS011;59919;48.112;16.280;2023-03-15T15:25:39;3.50;;;0.60;;
71759;SDS011;59919;48.112;16.280;2023-03-15T15:28:10;3.35;;;0.52;;
71759;SDS011;59919;48.112;16.280;2023-03-15T15:30:41;2.25;;;0.80;;
71759;SDS011;59919;48.112;16.280;2023-03-15T15:33:13;2.05;;;0.70;;
71759;SDS011;59919;48.112;16.280;2023-03-15T15:35:44;1.90;;;0.63;;
71759;SDS011;59919;48.112;16.280;2023-03-15T15:38:18;1.08;;;0.68;;
71759;SDS011;59919;48.112;16.280;2023-03-15T15:40:52;2.17;;;0.60;;
71759;SDS011;59919;48.112;16.280;2023-03-15T15:43:27;2.35;;;0.60;;
71759;SDS011;59919;48.112;16.280;2023-03-15T15:45:58;1.13;;;0.65;;
71759;SDS011;59919;48.112;16.280;2023-03-15T15:48:30;1.60;;;0.50;;
71759;SDS011;59919;48.112;16.280;2023-03-15T15:51:09;2.33;;;0.70;;
71759;SDS011;59919;48.112;16.280;2023-03-15T15:53:53;2.80;;;1.42;;
71759;SDS011;59919;48.112;16.280;2023-03-15T15:56:30;1.02;;;0.60;;
71759;SDS011;59919;48.112;16.280;2023-03-15T15:59:10;0.60;;;0.40;;
71759;SDS011;59919;48.112;16.280;2023-03-15T16:01:44;0.88;;;0.55;;
71759;SDS011;59919;48.112;16.280;2023-03-15T16:04:18;1.80;;;1.13;;
71759;SDS011;59919;48.112;16.280;2023-03-15T16:06:52;1.50;;;0.52;;
71759;SDS011;59919;48.112;16.280;2023-03-15T16:09:27;1.92;;;0.63;;
71759;SDS011;59919;48.112;16.280;2023-03-15T16:12:00;2.38;;;0.50;;
71759;SDS011;59919;48.112;16.280;2023-03-15T16:14:32;1.48;;;0.70;;
71759;SDS011;59919;48.112;16.280;2023-03-15T16:17:08;0.93;;;0.60;;
71759;SDS011;59919;48.112;16.280;2023-03-15T16:19:53;1.00;;;0.60;;
71759;SDS011;59919;48.112;16.280;2023-03-15T16:22:26;1.55;;;0.55;;
71759;SDS011;59919;48.112;16.280;2023-03-15T16:24:58;2.33;;;0.80;;
71759;SDS011;59919;48.112;16.280;2023-03-15T16:27:32;2.47;;;0.50;;
71759;SDS011;59919;48.112;16.280;2023-03-15T16:30:04;1.60;;;0.60;;
71759;SDS011;59919;48.112;16.280;2023-03-15T16:32:35;1.90;;;0.50;;
71759;SDS011;59919;48.112;16.280;2023-03-15T16:35:07;1.48;;;0.60;;
71759;SDS011;59919;48.112;16.280;2023-03-15T16:37:43;1.35;;;0.60;;
71759;SDS011;59919;48.112;16.280;2023-03-15T16:40:25;2.05;;;0.57;;
71759;SDS011;59919;48.112;16.280;2023-03-15T16:43:01;2.20;;;0.40;;
71759;SDS011;59919;48.112;16.280;2023-03-15T16:45:35;1.35;;;0.55;;
71759;SDS011;59919;48.112;16.280;2023-03-15T16:48:09;0.88;;;0.52;;
71759;SDS011;59919;48.112;16.280;2023-03-15T16:50:41;0.45;;;0.45;;